sensor_id;sensor_type;location;lat;lon;timestamp;P1;durP1;ratioP1;P2;durP2;ratioP2
30185;SDS011;31152;49.190;8.122;2023-04-15T00:01:12;4.70;;;2.20;;
30185;SDS011;31152;49.190;8.122;2023-04-15T00:03:44;9.30;;;2.28;;
30185;SDS011;31152;49.190;8.122;2023-04-15T00:06:13;5.07;;;2.13;;
30185;SDS011;31152;49.190;8.122;2023-04-15T00:08:40;7.03;;;2.00;;
30185;SDS011;31152;49.190;8.122;2023-04-15T00:11:07;7.90;;;2.15;;
30185;SDS011;31152;49.190;8.122;2023-04-15T00:13:33;5.45;;;2.30;;
30185;SDS011;31152;49.190;8.122;2023-04-15T00:16:00;7.53;;;2.00;;
30185;SDS011;31152;49.190;8.122;2023-04-15T00:18:27;6.43;;;2.55;;
30185;SDS011;31152;49.190;8.122;2023-04-15T00:20:57;7.28;;;2.00;;
30185;SDS011;31152;49.190;8.122;2023-04-15T00:23:26;5.90;;;1.88;;
30185;SDS011;31152;49.190;8.122;2023-04-15T00:25:53;7.82;;;2.17;;
30185;SDS011;31152;49.190;8.122;2023-04-15T00:28:20;8.48;;;2.20;;
30185;SDS011;31152;49.190;8.122;2023-04-15T00:30:47;12.82;;;2.75;;
30185;SDS011;31152;49.190;8.122;2023-04-15T00:33:16;6.70;;;2.30;;
30185;SDS011;31152;49.190;8.122;2023-04-15T00:35:43;9.90;;;2.67;;
30185;SDS011;31152;49.190;8.122;2023-04-15T00:38:10;9.30;;;2.20;;
30185;SDS011;31152;49.190;8.122;2023-04-15T00:40:38;8.40;;;2.35;;
30185;SDS011;31152;49.190;8.122;2023-04-15T00:43:05;7.05;;;2.08;;
30185;SDS011;31152;49.190;8.122;2023-04-15T00:45:32;8.00;;;2.35;;
30185;SDS011;31152;49.190;8.122;2023-04-15T00:47:59;6.97;;;2.03;;
30185;SDS011;31152;49.190;8.122;2023-04-15T00:50:28;7.05;;;1.65;;
30185;SDS011;31152;49.190;8.122;2023-04-15T00:52:57;6.07;;;2.25;;
30185;SDS011;31152;49.190;8.122;2023-04-15T00:55:24;8.30;;;2.03;;
30185;SDS011;31152;49.190;8.122;2023-04-15T00:57:50;5.85;;;1.90;;
30185;SDS011;31152;49.190;8.122;2023-04-15T01:00:18;8.57;;;2.17;;
30185;SDS011;31152;49.190;8.122;2023-04-15T01:02:45;6.93;;;1.98;;
30185;SDS011;31152;49.190;8.122;2023-04-15T01:05:12;6.13;;;1.90;;
30185;SDS011;31152;49.190;8.122;2023-04-15T01:07:42;6.47;;;2.10;;
30185;SDS011;31152;49.190;8.122;2023-04-15T01:10:11;7.32;;;2.45;;
30185;SDS011;31152;49.190;8.122;2023-04-15T01:12:40;6.25;;;1.67;;
30185;SDS011;31152;49.190;8.122;2023-04-15T01:15:07;4.65;;;1.80;;
30185;SDS011;31152;49.190;8.122;2023-04-15T01:17:36;7.50;;;1.75;;
30185;SDS011;31152;49.190;8.122;2023-04-15T01:20:03;7.43;;;1.90;;
30185;SDS011;31152;49.190;8.122;2023-04-15T01:22:30;4.82;;;1.98;;
30185;SDS011;31152;49.190;8.122;2023-04-15T01:25:00;6.45;;;1.50;;
30185;SDS011;31152;49.190;8.122;2023-04-15T01:27:38;8.45;;;1.75;;
30185;SDS011;31152;49.190;8.122;2023-04-15T01:30:06;5.43;;;2.10;;
30185;SDS011;31152;49.190;8.122;2023-04-15T01:32:33;5.63;;;2.10;;
30185;SDS011;31152;49.190;8.122;2023-04-15T01:35:00;7.25;;;2.13;;
30185;SDS011;31152;49.190;8.122;2023-04-15T01:37:28;8.45;;;2.53;;
30185;SDS011;31152;49.190;8.122;2023-04-15T01:39:55;6.93;;;2.20;;
30185;SDS011;31152;49.190;8.122;2023-04-15T01:42:23;5.55;;;1.63;;
30185;SDS011;31152;49.190;8.122;2023-04-15T01:44:49;12.10;;;2.25;;
30185;SDS011;31152;49.190;8.122;2023-04-15T01:47:16;6.85;;;1.63;;
30185;SDS011;31152;49.190;8.122;2023-04-15T01:49:43;8.82;;;2.10;;
30185;SDS011;31152;49.190;8.122;2023-04-15T01:52:09;9.05;;;1.60;;
30185;SDS011;31152;49.190;8.122;2023-04-15T01:54:36;5.80;;;1.75;;
30185;SDS011;31152;49.190;8.122;2023-04-15T01:57:03;6.97;;;2.00;;
30185;SDS011;31152;49.190;8.122;2023-04-15T01:59:30;14.60;;;2.47;;
30185;SDS011;31152;49.190;8.122;2023-04-15T02:01:59;7.13;;;1.67;;
30185;SDS011;31152;49.190;8.122;2023-04-15T02:04:26;6.10;;;1.70;;
30185;SDS011;31152;49.190;8.122;2023-04-15T02:06:53;11.93;;;1.95;;
30185;SDS011;31152;49.190;8.122;2023-04-15T02:09:19;4.75;;;1.70;;
30185;SDS011;31152;49.190;8.122;2023-04-15T02:11:46;6.72;;;1.77;;
30185;SDS011;31152;49.190;8.122;2023-04-15T02:14:13;9.80;;;2.00;;
30185;SDS011;31152;49.190;8.122;2023-04-15T02:16:39;4.30;;;1.60;;
30185;SDS011;31152;49.190;8.122;2023-04-15T02:19:06;5.97;;;2.13;;
30185;SDS011;31152;49.190;8.122;2023-04-15T02:21:34;8.13;;;2.00;;
30185;SDS011;31152;49.190;8.122;2023-04-15T02:24:00;11.13;;;1.77;;
30185;SDS011;31152;49.190;8.122;2023-04-15T02:26:29;4.88;;;1.92;;
30185;SDS011;31152;49.190;8.122;2023-04-15T02:28:59;4.30;;;1.65;;
30185;SDS011;31152;49.190;8.122;2023-04-15T02:31:26;11.15;;;1.80;;
30185;SDS011;31152;49.190;8.122;2023-04-15T02:33:53;4.65;;;1.60;;
30185;SDS011;31152;49.190;8.122;2023-04-15T02:36:19;6.55;;;1.58;;
30185;SDS011;31152;49.190;8.122;2023-04-15T02:38:49;8.95;;;1.80;;
30185;SDS011;31152;49.190;8.122;2023-04-15T02:41:16;14.63;;;2.42;;
30185;SDS011;31152;49.190;8.122;2023-04-15T02:43:43;8.55;;;2.45;;
30185;SDS011;31152;49.190;8.122;2023-04-15T02:46:10;10.35;;;2.22;;
30185;SDS011;31152;49.190;8.122;2023-04-15T02:48:39;6.25;;;2.00;;
30185;SDS011;31152;49.190;8.122;2023-04-15T02:51:16;4.70;;;1.80;;
30185;SDS011;31152;49.190;8.122;2023-04-15T02:53:45;4.45;;;1.50;;
30185;SDS011;31152;49.190;8.122;2023-04-15T02:56:13;7.07;;;1.73;;
30185;SDS011;31152;49.190;8.122;2023-04-15T02:58:42;7.38;;;2.03;;
30185;SDS011;31152;49.190;8.122;2023-04-15T03:01:15;9.02;;;1.67;;
30185;SDS011;31152;49.190;8.122;2023-04-15T03:03:42;4.43;;;1.50;;
30185;SDS011;31152;49.190;8.122;2023-04-15T03:06:09;5.55;;;1.88;;
30185;SDS011;31152;49.190;8.122;2023-04-15T03:08:35;3.72;;;1.50;;
30185;SDS011;31152;49.190;8.122;2023-04-15T03:11:02;7.25;;;1.73;;
30185;SDS011;31152;49.190;8.122;2023-04-15T03:13:29;4.05;;;1.70;;
30185;SDS011;31152;49.190;8.122;2023-04-15T03:15:56;10.32;;;1.60;;
30185;SDS011;31152;49.190;8.122;2023-04-15T03:18:23;8.68;;;2.25;;
30185;SDS011;31152;49.190;8.122;2023-04-15T03:20:53;5.20;;;1.50;;
30185;SDS011;31152;49.190;8.122;2023-04-15T03:23:20;4.32;;;1.90;;
30185;SDS011;31152;49.190;8.122;2023-04-15T03:25:49;7.88;;;1.85;;
30185;SDS011;31152;49.190;8.122;2023-04-15T03:28:16;12.65;;;1.95;;
30185;SDS011;31152;49.190;8.122;2023-04-15T03:30:45;4.88;;;1.63;;
30185;SDS011;31152;49.190;8.122;2023-04-15T03:33:12;4.57;;;1.60;;
30185;SDS011;31152;49.190;8.122;2023-04-15T03:35:38;6.28;;;1.88;;
30185;SDS011;31152;49.190;8.122;2023-04-15T03:38:05;7.57;;;1.70;;
30185;SDS011;31152;49.190;8.122;2023-04-15T03:40:32;5.47;;;1.77;;
30185;SDS011;31152;49.190;8.122;2023-04-15T03:42:59;6.10;;;2.50;;
30185;SDS011;31152;49.190;8.122;2023-04-15T03:45:26;5.43;;;1.70;;
30185;SDS011;31152;49.190;8.122;2023-04-15T03:47:54;9.10;;;1.98;;
30185;SDS011;31152;49.190;8.122;2023-04-15T03:50:28;6.40;;;1.88;;
30185;SDS011;31152;49.190;8.122;2023-04-15T03:52:55;6.28;;;1.70;;
30185;SDS011;31152;49.190;8.122;2023-04-15T03:55:22;8.50;;;2.10;;
30185;SDS011;31152;49.190;8.122;2023-04-15T03:57:48;8.15;;;1.70;;
30185;SDS011;31152;49.190;8.122;2023-04-15T04:00:15;8.20;;;2.10;;
30185;SDS011;31152;49.190;8.122;2023-04-15T04:02:42;4.78;;;1.90;;
30185;SDS011;31152;49.190;8.122;2023-04-15T04:05:09;6.78;;;1.80;;
30185;SDS011;31152;49.190;8.122;2023-04-15T04:07:35;5.47;;;1.90;;
30185;SDS011;31152;49.190;8.122;2023-04-15T04:10:02;6.07;;;1.90;;
30185;SDS011;31152;49.190;8.122;2023-04-15T04:12:32;8.73;;;2.03;;
30185;SDS011;31152;49.190;8.122;2023-04-15T04:14:59;5.97;;;1.67;;
30185;SDS011;31152;49.190;8.122;2023-04-15T04:17:28;6.88;;;2.17;;
30185;SDS011;31152;49.190;8.122;2023-04-15T04:19:55;4.85;;;2.15;;
30185;SDS011;31152;49.190;8.122;2023-04-15T04:22:22;9.90;;;2.17;;
30185;SDS011;31152;49.190;8.122;2023-04-15T04:24:51;10.73;;;2.13;;
30185;SDS011;31152;49.190;8.122;2023-04-15T04:27:18;10.85;;;2.00;;
30185;SDS011;31152;49.190;8.122;2023-04-15T04:29:47;8.90;;;2.30;;
30185;SDS011;31152;49.190;8.122;2023-04-15T04:32:16;7.38;;;2.00;;
30185;SDS011;31152;49.190;8.122;2023-04-15T04:34:42;6.07;;;2.13;;
30185;SDS011;31152;49.190;8.122;2023-04-15T04:37:11;6.97;;;1.88;;
30185;SDS011;31152;49.190;8.122;2023-04-15T04:39:38;9.68;;;3.28;;
30185;SDS011;31152;49.190;8.122;2023-04-15T04:42:05;9.52;;;2.25;;
30185;SDS011;31152;49.190;8.122;2023-04-15T04:44:34;12.70;;;2.80;;
30185;SDS011;31152;49.190;8.122;2023-04-15T04:47:00;9.57;;;2.20;;
30185;SDS011;31152;49.190;8.122;2023-04-15T04:49:30;7.50;;;1.88;;
30185;SDS011;31152;49.190;8.122;2023-04-15T04:51:59;6.03;;;1.95;;
30185;SDS011;31152;49.190;8.122;2023-04-15T04:54:26;6.80;;;2.50;;
30185;SDS011;31152;49.190;8.122;2023-04-15T04:56:53;6.45;;;1.77;;
30185;SDS011;31152;49.190;8.122;2023-04-15T04:59:23;5.70;;;2.13;;
30185;SDS011;31152;49.190;8.122;2023-04-15T05:01:52;7.03;;;1.83;;
30185;SDS011;31152;49.190;8.122;2023-04-15T05:04:19;5.53;;;2.67;;
30185;SDS011;31152;49.190;8.122;2023-04-15T05:06:46;11.85;;;2.17;;
30185;SDS011;31152;49.190;8.122;2023-04-15T05:09:12;6.40;;;2.10;;
30185;SDS011;31152;49.190;8.122;2023-04-15T05:11:39;9.93;;;2.15;;
30185;SDS011;31152;49.190;8.122;2023-04-15T05:14:08;6.63;;;1.92;;
30185;SDS011;31152;49.190;8.122;2023-04-15T05:16:35;7.20;;;2.25;;
30185;SDS011;31152;49.190;8.122;2023-04-15T05:19:01;5.97;;;2.55;;
30185;SDS011;31152;49.190;8.122;2023-04-15T05:21:28;9.77;;;2.78;;
30185;SDS011;31152;49.190;8.122;2023-04-15T05:23:56;4.78;;;1.77;;
30185;SDS011;31152;49.190;8.122;2023-04-15T05:26:22;7.95;;;2.20;;
30185;SDS011;31152;49.190;8.122;2023-04-15T05:28:49;6.70;;;2.67;;
30185;SDS011;31152;49.190;8.122;2023-04-15T05:31:16;6.70;;;2.67;;
30185;SDS011;31152;49.190;8.122;2023-04-15T05:33:45;10.27;;;2.47;;
30185;SDS011;31152;49.190;8.122;2023-04-15T05:36:11;15.30;;;2.97;;
30185;SDS011;31152;49.190;8.122;2023-04-15T05:38:38;8.90;;;3.85;;
30185;SDS011;31152;49.190;8.122;2023-04-15T05:41:05;9.88;;;3.15;;
30185;SDS011;31152;49.190;8.122;2023-04-15T05:43:31;6.78;;;2.17;;
30185;SDS011;31152;49.190;8.122;2023-04-15T05:45:58;8.15;;;2.35;;
30185;SDS011;31152;49.190;8.122;2023-04-15T05:48:25;6.35;;;1.92;;
30185;SDS011;31152;49.190;8.122;2023-04-15T05:50:51;6.65;;;1.98;;
30185;SDS011;31152;49.190;8.122;2023-04-15T05:53:21;5.47;;;2.00;;
30185;SDS011;31152;49.190;8.122;2023-04-15T05:55:49;4.18;;;1.75;;
30185;SDS011;31152;49.190;8.122;2023-04-15T05:58:16;5.75;;;2.10;;
30185;SDS011;31152;49.190;8.122;2023-04-15T06:00:45;7.55;;;2.53;;
30185;SDS011;31152;49.190;8.122;2023-04-15T06:03:15;5.70;;;2.50;;
30185;SDS011;31152;49.190;8.122;2023-04-15T06:05:42;9.30;;;1.88;;
30185;SDS011;31152;49.190;8.122;2023-04-15T06:08:09;6.18;;;2.40;;
30185;SDS011;31152;49.190;8.122;2023-04-15T06:10:38;6.05;;;2.08;;
30185;SDS011;31152;49.190;8.122;2023-04-15T06:13:07;6.50;;;2.20;;
30185;SDS011;31152;49.190;8.122;2023-04-15T06:15:37;17.02;;;2.58;;
30185;SDS011;31152;49.190;8.122;2023-04-15T06:18:03;4.50;;;2.00;;
30185;SDS011;31152;49.190;8.122;2023-04-15T06:20:30;11.57;;;2.25;;
30185;SDS011;31152;49.190;8.122;2023-04-15T06:22:59;7.60;;;1.88;;
30185;SDS011;31152;49.190;8.122;2023-04-15T06:25:26;10.93;;;2.47;;
30185;SDS011;31152;49.190;8.122;2023-04-15T06:27:52;9.02;;;2.25;;
30185;SDS011;31152;49.190;8.122;2023-04-15T06:30:19;4.32;;;1.75;;
30185;SDS011;31152;49.190;8.122;2023-04-15T06:32:49;6.93;;;2.20;;
30185;SDS011;31152;49.190;8.122;2023-04-15T06:35:16;5.75;;;2.08;;
30185;SDS011;31152;49.190;8.122;2023-04-15T06:37:43;7.13;;;2.00;;
30185;SDS011;31152;49.190;8.122;2023-04-15T06:40:14;7.82;;;2.80;;
30185;SDS011;31152;49.190;8.122;2023-04-15T06:42:42;6.97;;;2.33;;
30185;SDS011;31152;49.190;8.122;2023-04-15T06:45:08;9.05;;;2.33;;
30185;SDS011;31152;49.190;8.122;2023-04-15T06:47:36;7.20;;;2.60;;
30185;SDS011;31152;49.190;8.122;2023-04-15T06:50:02;9.35;;;2.78;;
30185;SDS011;31152;49.190;8.122;2023-04-15T06:52:30;8.23;;;2.50;;
30185;SDS011;31152;49.190;8.122;2023-04-15T06:54:56;10.30;;;3.28;;
30185;SDS011;31152;49.190;8.122;2023-04-15T06:57:26;11.15;;;2.88;;
30185;SDS011;31152;49.190;8.122;2023-04-15T06:59:53;14.32;;;3.60;;
30185;SDS011;31152;49.190;8.122;2023-04-15T07:02:20;13.60;;;4.00;;
30185;SDS011;31152;49.190;8.122;2023-04-15T07:04:49;9.55;;;3.20;;
30185;SDS011;31152;49.190;8.122;2023-04-15T07:07:19;18.52;;;3.50;;
30185;SDS011;31152;49.190;8.122;2023-04-15T07:09:48;12.85;;;3.40;;
30185;SDS011;31152;49.190;8.122;2023-04-15T07:12:15;7.60;;;3.00;;
30185;SDS011;31152;49.190;8.122;2023-04-15T07:14:42;7.30;;;3.22;;
30185;SDS011;31152;49.190;8.122;2023-04-15T07:17:08;13.13;;;3.67;;
30185;SDS011;31152;49.190;8.122;2023-04-15T07:19:38;12.82;;;3.50;;
30185;SDS011;31152;49.190;8.122;2023-04-15T07:22:05;9.75;;;3.25;;
30185;SDS011;31152;49.190;8.122;2023-04-15T07:24:34;12.93;;;3.80;;
30185;SDS011;31152;49.190;8.122;2023-04-15T07:27:01;10.35;;;2.97;;
30185;SDS011;31152;49.190;8.122;2023-04-15T07:29:29;10.38;;;3.50;;
30185;SDS011;31152;49.190;8.122;2023-04-15T07:31:56;16.67;;;3.70;;
30185;SDS011;31152;49.190;8.122;2023-04-15T07:34:23;10.35;;;3.33;;
30185;SDS011;31152;49.190;8.122;2023-04-15T07:36:50;8.35;;;3.83;;
30185;SDS011;31152;49.190;8.122;2023-04-15T07:39:17;6.05;;;3.28;;
30185;SDS011;31152;49.190;8.122;2023-04-15T07:41:44;10.25;;;3.65;;
30185;SDS011;31152;49.190;8.122;2023-04-15T07:44:14;14.55;;;3.72;;
30185;SDS011;31152;49.190;8.122;2023-04-15T07:46:40;10.27;;;3.65;;
30185;SDS011;31152;49.190;8.122;2023-04-15T07:49:07;10.32;;;3.50;;
30185;SDS011;31152;49.190;8.122;2023-04-15T07:51:34;8.82;;;3.63;;
30185;SDS011;31152;49.190;8.122;2023-04-15T07:54:01;10.52;;;3.63;;
30185;SDS011;31152;49.190;8.122;2023-04-15T07:56:28;10.02;;;3.78;;
30185;SDS011;31152;49.190;8.122;2023-04-15T07:58:55;17.23;;;4.10;;
30185;SDS011;31152;49.190;8.122;2023-04-15T08:01:21;9.35;;;3.42;;
30185;SDS011;31152;49.190;8.122;2023-04-15T08:03:48;11.20;;;3.70;;
30185;SDS011;31152;49.190;8.122;2023-04-15T08:06:15;10.20;;;4.63;;
30185;SDS011;31152;49.190;8.122;2023-04-15T08:08:44;12.40;;;4.18;;
30185;SDS011;31152;49.190;8.122;2023-04-15T08:11:11;16.15;;;3.60;;
30185;SDS011;31152;49.190;8.122;2023-04-15T08:13:40;12.57;;;4.63;;
30185;SDS011;31152;49.190;8.122;2023-04-15T08:16:16;9.77;;;4.28;;
30185;SDS011;31152;49.190;8.122;2023-04-15T08:18:50;8.95;;;4.00;;
30185;SDS011;31152;49.190;8.122;2023-04-15T08:21:18;11.73;;;3.67;;
30185;SDS011;31152;49.190;8.122;2023-04-15T08:23:49;9.70;;;3.80;;
30185;SDS011;31152;49.190;8.122;2023-04-15T08:26:17;11.13;;;3.80;;
30185;SDS011;31152;49.190;8.122;2023-04-15T08:28:45;12.65;;;4.10;;
30185;SDS011;31152;49.190;8.122;2023-04-15T08:31:15;10.63;;;4.40;;
30185;SDS011;31152;49.190;8.122;2023-04-15T08:36:12;8.48;;;3.60;;
30185;SDS011;31152;49.190;8.122;2023-04-15T08:38:43;9.57;;;3.50;;
30185;SDS011;31152;49.190;8.122;2023-04-15T08:41:33;11.25;;;4.13;;
30185;SDS011;31152;49.190;8.122;2023-04-15T08:44:05;11.50;;;3.97;;
30185;SDS011;31152;49.190;8.122;2023-04-15T08:46:32;9.70;;;3.60;;
30185;SDS011;31152;49.190;8.122;2023-04-15T08:49:03;9.32;;;3.58;;
30185;SDS011;31152;49.190;8.122;2023-04-15T08:51:30;9.80;;;3.58;;
30185;SDS011;31152;49.190;8.122;2023-04-15T08:53:58;16.05;;;3.60;;
30185;SDS011;31152;49.190;8.122;2023-04-15T08:56:26;11.05;;;4.32;;
30185;SDS011;31152;49.190;8.122;2023-04-15T08:58:56;11.88;;;4.10;;
30185;SDS011;31152;49.190;8.122;2023-04-15T09:01:23;6.13;;;3.22;;
30185;SDS011;31152;49.190;8.122;2023-04-15T09:03:51;6.25;;;3.13;;
30185;SDS011;31152;49.190;8.122;2023-04-15T09:06:22;8.60;;;3.13;;
30185;SDS011;31152;49.190;8.122;2023-04-15T09:08:49;12.40;;;3.38;;
30185;SDS011;31152;49.190;8.122;2023-04-15T09:11:21;9.95;;;2.97;;
30185;SDS011;31152;49.190;8.122;2023-04-15T09:13:48;6.63;;;2.95;;
30185;SDS011;31152;49.190;8.122;2023-04-15T09:16:15;5.35;;;3.38;;
30185;SDS011;31152;49.190;8.122;2023-04-15T09:18:42;6.93;;;3.50;;
30185;SDS011;31152;49.190;8.122;2023-04-15T09:21:12;10.90;;;3.70;;
30185;SDS011;31152;49.190;8.122;2023-04-15T09:23:55;9.25;;;3.88;;
30185;SDS011;31152;49.190;8.122;2023-04-15T09:26:31;11.38;;;3.60;;
30185;SDS011;31152;49.190;8.122;2023-04-15T09:29:10;8.25;;;3.22;;
30185;SDS011;31152;49.190;8.122;2023-04-15T09:31:40;10.25;;;3.47;;
30185;SDS011;31152;49.190;8.122;2023-04-15T09:34:07;9.77;;;3.30;;
30185;SDS011;31152;49.190;8.122;2023-04-15T09:39:16;10.60;;;3.75;;
30185;SDS011;31152;49.190;8.122;2023-04-15T09:41:43;9.32;;;3.88;;
30185;SDS011;31152;49.190;8.122;2023-04-15T09:44:23;10.20;;;3.42;;
30185;SDS011;31152;49.190;8.122;2023-04-15T09:46:50;7.97;;;3.20;;
30185;SDS011;31152;49.190;8.122;2023-04-15T09:49:20;9.45;;;3.88;;
30185;SDS011;31152;49.190;8.122;2023-04-15T09:51:47;8.32;;;3.50;;
30185;SDS011;31152;49.190;8.122;2023-04-15T09:54:36;10.37;;;4.27;;
30185;SDS011;31152;49.190;8.122;2023-04-15T09:57:07;9.70;;;3.75;;
30185;SDS011;31152;49.190;8.122;2023-04-15T09:59:35;8.90;;;3.88;;
30185;SDS011;31152;49.190;8.122;2023-04-15T10:02:03;10.88;;;3.80;;
30185;SDS011;31152;49.190;8.122;2023-04-15T10:04:34;9.77;;;4.78;;
30185;SDS011;31152;49.190;8.122;2023-04-15T10:07:06;15.80;;;5.07;;
30185;SDS011;31152;49.190;8.122;2023-04-15T10:09:34;11.00;;;4.93;;
30185;SDS011;31152;49.190;8.122;2023-04-15T10:12:02;9.75;;;3.88;;
30185;SDS011;31152;49.190;8.122;2023-04-15T10:14:31;6.15;;;3.35;;
30185;SDS011;31152;49.190;8.122;2023-04-15T10:17:04;10.55;;;4.05;;
30185;SDS011;31152;49.190;8.122;2023-04-15T10:19:32;8.02;;;3.65;;
30185;SDS011;31152;49.190;8.122;2023-04-15T10:22:02;14.32;;;4.82;;
30185;SDS011;31152;49.190;8.122;2023-04-15T10:24:32;7.38;;;4.00;;
30185;SDS011;31152;49.190;8.122;2023-04-15T10:26:59;6.75;;;4.20;;
30185;SDS011;31152;49.190;8.122;2023-04-15T10:29:28;7.53;;;4.43;;
30185;SDS011;31152;49.190;8.122;2023-04-15T10:31:55;9.88;;;5.18;;
30185;SDS011;31152;49.190;8.122;2023-04-15T10:34:24;8.38;;;4.75;;
30185;SDS011;31152;49.190;8.122;2023-04-15T10:36:58;8.52;;;3.97;;
30185;SDS011;31152;49.190;8.122;2023-04-15T10:39:41;5.03;;;3.60;;
30185;SDS011;31152;49.190;8.122;2023-04-15T10:42:10;4.95;;;3.40;;
30185;SDS011;31152;49.190;8.122;2023-04-15T10:44:38;6.63;;;3.53;;
30185;SDS011;31152;49.190;8.122;2023-04-15T10:47:17;10.88;;;4.00;;
30185;SDS011;31152;49.190;8.122;2023-04-15T10:49:51;8.35;;;3.50;;
30185;SDS011;31152;49.190;8.122;2023-04-15T10:52:26;9.55;;;3.05;;
30185;SDS011;31152;49.190;8.122;2023-04-15T10:55:04;7.88;;;2.95;;
30185;SDS011;31152;49.190;8.122;2023-04-15T10:57:39;5.88;;;2.72;;
30185;SDS011;31152;49.190;8.122;2023-04-15T11:05:14;7.25;;;2.30;;
30185;SDS011;31152;49.190;8.122;2023-04-15T11:12:57;7.10;;;2.45;;
30185;SDS011;31152;49.190;8.122;2023-04-15T11:15:35;5.28;;;2.40;;
30185;SDS011;31152;49.190;8.122;2023-04-15T11:18:10;5.55;;;2.50;;
30185;SDS011;31152;49.190;8.122;2023-04-15T11:20:44;8.50;;;3.08;;
30185;SDS011;31152;49.190;8.122;2023-04-15T11:23:18;6.95;;;2.10;;
30185;SDS011;31152;49.190;8.122;2023-04-15T11:25:53;9.35;;;2.50;;
30185;SDS011;31152;49.190;8.122;2023-04-15T11:28:24;9.20;;;2.70;;
30185;SDS011;31152;49.190;8.122;2023-04-15T11:30:55;8.27;;;2.72;;
30185;SDS011;31152;49.190;8.122;2023-04-15T11:33:31;6.55;;;2.60;;
30185;SDS011;31152;49.190;8.122;2023-04-15T11:35:57;8.13;;;2.35;;
30185;SDS011;31152;49.190;8.122;2023-04-15T11:38:24;7.43;;;2.47;;
30185;SDS011;31152;49.190;8.122;2023-04-15T11:40:51;7.20;;;2.70;;
30185;SDS011;31152;49.190;8.122;2023-04-15T11:43:21;8.20;;;2.88;;
30185;SDS011;31152;49.190;8.122;2023-04-15T11:48:25;6.80;;;2.60;;
30185;SDS011;31152;49.190;8.122;2023-04-15T11:50:54;8.30;;;2.95;;
30185;SDS011;31152;49.190;8.122;2023-04-15T11:53:22;7.38;;;2.65;;
30185;SDS011;31152;49.190;8.122;2023-04-15T11:55:51;8.63;;;2.72;;
30185;SDS011;31152;49.190;8.122;2023-04-15T11:58:22;8.98;;;2.60;;
30185;SDS011;31152;49.190;8.122;2023-04-15T12:03:24;7.60;;;2.85;;
30185;SDS011;31152;49.190;8.122;2023-04-15T12:08:58;12.23;;;2.92;;
30185;SDS011;31152;49.190;8.122;2023-04-15T12:14:15;5.10;;;2.63;;
30185;SDS011;31152;49.190;8.122;2023-04-15T12:17:00;6.90;;;2.50;;
30185;SDS011;31152;49.190;8.122;2023-04-15T12:19:29;6.28;;;2.63;;
30185;SDS011;31152;49.190;8.122;2023-04-15T12:22:10;5.20;;;2.30;;
30185;SDS011;31152;49.190;8.122;2023-04-15T12:24:38;11.45;;;3.30;;
30185;SDS011;31152;49.190;8.122;2023-04-15T12:27:08;8.30;;;2.80;;
30185;SDS011;31152;49.190;8.122;2023-04-15T12:29:38;6.30;;;2.47;;
30185;SDS011;31152;49.190;8.122;2023-04-15T12:32:10;8.55;;;2.30;;
30185;SDS011;31152;49.190;8.122;2023-04-15T12:34:47;5.47;;;2.42;;
30185;SDS011;31152;49.190;8.122;2023-04-15T12:37:16;6.65;;;2.17;;
30185;SDS011;31152;49.190;8.122;2023-04-15T12:39:43;6.72;;;1.90;;
30185;SDS011;31152;49.190;8.122;2023-04-15T12:42:13;8.02;;;2.30;;
30185;SDS011;31152;49.190;8.122;2023-04-15T12:44:41;5.32;;;1.58;;
30185;SDS011;31152;49.190;8.122;2023-04-15T12:47:10;3.65;;;1.83;;
30185;SDS011;31152;49.190;8.122;2023-04-15T12:49:38;5.53;;;1.80;;
30185;SDS011;31152;49.190;8.122;2023-04-15T12:52:05;4.10;;;1.58;;
30185;SDS011;31152;49.190;8.122;2023-04-15T12:54:32;6.28;;;1.50;;
30185;SDS011;31152;49.190;8.122;2023-04-15T12:57:00;4.90;;;2.00;;
30185;SDS011;31152;49.190;8.122;2023-04-15T12:59:32;6.10;;;1.70;;
30185;SDS011;31152;49.190;8.122;2023-04-15T13:01:59;4.15;;;1.85;;
30185;SDS011;31152;49.190;8.122;2023-04-15T13:04:28;7.38;;;1.90;;
30185;SDS011;31152;49.190;8.122;2023-04-15T13:06:56;7.13;;;2.40;;
30185;SDS011;31152;49.190;8.122;2023-04-15T13:09:23;5.07;;;2.40;;
30185;SDS011;31152;49.190;8.122;2023-04-15T13:11:52;6.10;;;2.53;;
30185;SDS011;31152;49.190;8.122;2023-04-15T13:14:19;5.80;;;2.63;;
30185;SDS011;31152;49.190;8.122;2023-04-15T13:16:46;5.50;;;2.97;;
30185;SDS011;31152;49.190;8.122;2023-04-15T13:19:13;8.65;;;3.42;;
30185;SDS011;31152;49.190;8.122;2023-04-15T13:21:40;9.68;;;2.90;;
30185;SDS011;31152;49.190;8.122;2023-04-15T13:24:06;6.63;;;3.00;;
30185;SDS011;31152;49.190;8.122;2023-04-15T13:26:34;5.18;;;2.67;;
30185;SDS011;31152;49.190;8.122;2023-04-15T13:29:01;7.07;;;3.58;;
30185;SDS011;31152;49.190;8.122;2023-04-15T13:31:28;7.78;;;2.95;;
30185;SDS011;31152;49.190;8.122;2023-04-15T13:33:55;6.18;;;3.05;;
30185;SDS011;31152;49.190;8.122;2023-04-15T13:36:25;9.55;;;3.03;;
30185;SDS011;31152;49.190;8.122;2023-04-15T13:38:52;4.88;;;2.63;;
30185;SDS011;31152;49.190;8.122;2023-04-15T13:41:19;5.63;;;3.25;;
30185;SDS011;31152;49.190;8.122;2023-04-15T13:43:48;7.20;;;2.75;;
30185;SDS011;31152;49.190;8.122;2023-04-15T13:46:15;9.38;;;2.97;;
30185;SDS011;31152;49.190;8.122;2023-04-15T13:48:41;5.72;;;2.92;;
30185;SDS011;31152;49.190;8.122;2023-04-15T13:51:08;8.98;;;2.95;;
30185;SDS011;31152;49.190;8.122;2023-04-15T13:53:38;6.00;;;2.80;;
30185;SDS011;31152;49.190;8.122;2023-04-15T13:56:06;9.82;;;3.60;;
30185;SDS011;31152;49.190;8.122;2023-04-15T13:58:36;7.25;;;2.90;;
30185;SDS011;31152;49.190;8.122;2023-04-15T14:01:08;5.32;;;2.42;;
30185;SDS011;31152;49.190;8.122;2023-04-15T14:03:35;3.58;;;2.05;;
30185;SDS011;31152;49.190;8.122;2023-04-15T14:06:04;7.07;;;2.20;;
30185;SDS011;31152;49.190;8.122;2023-04-15T14:08:31;8.88;;;2.72;;
30185;SDS011;31152;49.190;8.122;2023-04-15T14:10:58;5.88;;;1.75;;
30185;SDS011;31152;49.190;8.122;2023-04-15T14:13:29;6.97;;;1.80;;
30185;SDS011;31152;49.190;8.122;2023-04-15T14:15:56;5.90;;;1.80;;
30185;SDS011;31152;49.190;8.122;2023-04-15T14:18:23;9.20;;;2.42;;
30185;SDS011;31152;49.190;8.122;2023-04-15T14:20:50;6.25;;;1.75;;
30185;SDS011;31152;49.190;8.122;2023-04-15T14:23:17;7.63;;;1.65;;
30185;SDS011;31152;49.190;8.122;2023-04-15T14:25:43;4.00;;;1.60;;
30185;SDS011;31152;49.190;8.122;2023-04-15T14:28:13;4.53;;;1.48;;
30185;SDS011;31152;49.190;8.122;2023-04-15T14:30:40;5.95;;;1.50;;
30185;SDS011;31152;49.190;8.122;2023-04-15T14:33:09;4.30;;;1.40;;
30185;SDS011;31152;49.190;8.122;2023-04-15T14:35:38;3.38;;;1.33;;
30185;SDS011;31152;49.190;8.122;2023-04-15T14:38:04;3.40;;;1.50;;
30185;SDS011;31152;49.190;8.122;2023-04-15T14:40:35;7.78;;;1.85;;
30185;SDS011;31152;49.190;8.122;2023-04-15T14:43:02;6.03;;;1.10;;
30185;SDS011;31152;49.190;8.122;2023-04-15T14:45:31;6.32;;;2.10;;
30185;SDS011;31152;49.190;8.122;2023-04-15T14:48:01;4.18;;;1.15;;
30185;SDS011;31152;49.190;8.122;2023-04-15T14:50:29;4.57;;;1.10;;
30185;SDS011;31152;49.190;8.122;2023-04-15T14:52:55;9.07;;;1.20;;
30185;SDS011;31152;49.190;8.122;2023-04-15T14:55:23;3.20;;;1.10;;
30185;SDS011;31152;49.190;8.122;2023-04-15T14:57:50;2.15;;;1.10;;
30185;SDS011;31152;49.190;8.122;2023-04-15T15:00:16;3.35;;;1.10;;
30185;SDS011;31152;49.190;8.122;2023-04-15T15:02:43;2.97;;;1.05;;
30185;SDS011;31152;49.190;8.122;2023-04-15T15:05:12;2.50;;;1.20;;
30185;SDS011;31152;49.190;8.122;2023-04-15T15:07:39;3.15;;;0.82;;
30185;SDS011;31152;49.190;8.122;2023-04-15T15:10:06;1.90;;;0.70;;
30185;SDS011;31152;49.190;8.122;2023-04-15T15:12:36;2.30;;;1.10;;
30185;SDS011;31152;49.190;8.122;2023-04-15T15:15:03;1.98;;;1.25;;
30185;SDS011;31152;49.190;8.122;2023-04-15T15:17:44;3.17;;;1.55;;
30185;SDS011;31152;49.190;8.122;2023-04-15T15:20:11;2.75;;;1.50;;